CheckWX is a tool to help pilots better visualize weather data.  It is not intended as a substitute for an official pre-flight weather briefing.

04:04:05 UTC

SCEL TAF
Comodoro Arturo Merino Benítez International Airport
Santiago, Chile
TAF SCEL 182206Z 1900/1924 21015KT 9999 FEW180 BKN200 TX34/1919Z TN17/1911Z BECMG 1901/1903 16004KT BECMG 1914/1916 18008KT BECMG 1919/1921 21015KT

Jan-19@
00:00 UTC

Jan-19 @ 00:00 UTC

Jan-19@
01:00 UTC

Jan-19 @ 01:00 UTC

TAF SCEL 182206Z 1900/1924 21015KT 9999 FEW180 BKN200 TX34/1919Z TN17/1911Z

Expired

Wind
  • 210° at 15 KTS
Cloud Levels
  • Few at 18,000' AGL
  • Broken at 20,000' AGL

Jan-19@
01:00 UTC

Jan-19 @ 01:00 UTC

Jan-19@
14:00 UTC

Jan-19 @ 14:00 UTC

BECMG 1901/1903 16004KT

Becoming

Becoming Conditions expected by Sun, Jan 19, 2020 @ 03:00 UTC

Wind
  • 160° at 4 KTS
Cloud Levels
  • Few at 18,000' AGL
  • Broken at 20,000' AGL

Jan-19@
14:00 UTC

Jan-19 @ 14:00 UTC

Jan-19@
19:00 UTC

Jan-19 @ 19:00 UTC

BECMG 1914/1916 18008KT

Becoming

Becoming Conditions expected by Sun, Jan 19, 2020 @ 16:00 UTC

Wind
  • 180° at 8 KTS
Cloud Levels
  • Few at 18,000' AGL
  • Broken at 20,000' AGL

Jan-19@
19:00 UTC

Jan-19 @ 19:00 UTC

Jan-20@
00:00 UTC

Jan-20 @ 00:00 UTC

BECMG 1919/1921 21015KT

Becoming

Becoming Conditions expected by Sun, Jan 19, 2020 @ 21:00 UTC

Wind
  • 210° at 15 KTS
Cloud Levels
  • Few at 18,000' AGL
  • Broken at 20,000' AGL